sensor_id;sensor_type;location;lat;lon;timestamp;temperature;humidity
64209;DHT22;50527;52.414;13.226;2023-06-14T00:01:17;14.90;70.50
64209;DHT22;50527;52.414;13.226;2023-06-14T00:03:45;14.90;70.70
64209;DHT22;50527;52.414;13.226;2023-06-14T00:06:11;14.80;70.90
64209;DHT22;50527;52.414;13.226;2023-06-14T00:08:36;14.90;70.80
64209;DHT22;50527;52.414;13.226;2023-06-14T00:11:02;14.90;70.90
64209;DHT22;50527;52.414;13.226;2023-06-14T00:13:27;14.90;70.80
64209;DHT22;50527;52.414;13.226;2023-06-14T00:15:53;14.90;70.90
64209;DHT22;50527;52.414;13.226;2023-06-14T00:18:20;14.90;71.30
64209;DHT22;50527;52.414;13.226;2023-06-14T00:20:49;14.90;71.40
64209;DHT22;50527;52.414;13.226;2023-06-14T00:23:15;14.90;71.60
64209;DHT22;50527;52.414;13.226;2023-06-14T00:25:40;14.80;71.90
64209;DHT22;50527;52.414;13.226;2023-06-14T00:28:06;14.80;72.30
64209;DHT22;50527;52.414;13.226;2023-06-14T00:30:31;14.70;72.30
64209;DHT22;50527;52.414;13.226;2023-06-14T00:32:57;14.70;72.70
64209;DHT22;50527;52.414;13.226;2023-06-14T00:35:23;14.60;72.90
64209;DHT22;50527;52.414;13.226;2023-06-14T00:37:48;14.70;73.20
64209;DHT22;50527;52.414;13.226;2023-06-14T00:40:14;14.60;73.50
64209;DHT22;50527;52.414;13.226;2023-06-14T00:42:39;14.60;73.90
64209;DHT22;50527;52.414;13.226;2023-06-14T00:45:05;14.50;74.00
64209;DHT22;50527;52.414;13.226;2023-06-14T00:47:30;14.60;74.10
64209;DHT22;50527;52.414;13.226;2023-06-14T00:49:57;14.60;74.40
64209;DHT22;50527;52.414;13.226;2023-06-14T00:52:23;14.50;74.90
64209;DHT22;50527;52.414;13.226;2023-06-14T00:54:49;14.40;75.40
64209;DHT22;50527;52.414;13.226;2023-06-14T00:57:15;14.40;75.90
64209;DHT22;50527;52.414;13.226;2023-06-14T01:02:08;14.40;76.30
64209;DHT22;50527;52.414;13.226;2023-06-14T01:04:33;14.30;76.70
64209;DHT22;50527;52.414;13.226;2023-06-14T01:07:12;14.30;77.30
64209;DHT22;50527;52.414;13.226;2023-06-14T01:12:43;14.30;78.60
64209;DHT22;50527;52.414;13.226;2023-06-14T01:15:30;14.40;79.70
64209;DHT22;50527;52.414;13.226;2023-06-14T01:17:57;14.40;79.70
64209;DHT22;50527;52.414;13.226;2023-06-14T01:20:32;14.50;79.50
64209;DHT22;50527;52.414;13.226;2023-06-14T01:22:58;14.50;80.00
64209;DHT22;50527;52.414;13.226;2023-06-14T01:25:24;14.40;79.70
64209;DHT22;50527;52.414;13.226;2023-06-14T01:27:52;14.40;80.20
64209;DHT22;50527;52.414;13.226;2023-06-14T01:30:20;14.40;79.90
64209;DHT22;50527;52.414;13.226;2023-06-14T01:32:47;14.40;80.40
64209;DHT22;50527;52.414;13.226;2023-06-14T01:35:14;14.30;81.00
64209;DHT22;50527;52.414;13.226;2023-06-14T01:37:40;14.30;81.80
64209;DHT22;50527;52.414;13.226;2023-06-14T01:40:07;14.30;82.00
64209;DHT22;50527;52.414;13.226;2023-06-14T01:42:36;14.30;82.30
64209;DHT22;50527;52.414;13.226;2023-06-14T01:45:02;14.30;82.30
64209;DHT22;50527;52.414;13.226;2023-06-14T01:47:30;14.30;82.80
64209;DHT22;50527;52.414;13.226;2023-06-14T01:49:59;14.20;82.80
64209;DHT22;50527;52.414;13.226;2023-06-14T01:52:24;14.20;83.60
64209;DHT22;50527;52.414;13.226;2023-06-14T01:54:50;14.20;84.60
64209;DHT22;50527;52.414;13.226;2023-06-14T01:57:16;14.20;84.00
64209;DHT22;50527;52.414;13.226;2023-06-14T01:59:41;14.20;84.50
64209;DHT22;50527;52.414;13.226;2023-06-14T02:02:07;14.10;84.00
64209;DHT22;50527;52.414;13.226;2023-06-14T02:04:33;14.10;84.80
64209;DHT22;50527;52.414;13.226;2023-06-14T02:06:58;14.00;86.00
64209;DHT22;50527;52.414;13.226;2023-06-14T02:09:45;14.00;86.20
64209;DHT22;50527;52.414;13.226;2023-06-14T02:12:11;14.00;86.20
64209;DHT22;50527;52.414;13.226;2023-06-14T02:14:37;14.00;86.50
64209;DHT22;50527;52.414;13.226;2023-06-14T02:17:03;14.10;86.20
64209;DHT22;50527;52.414;13.226;2023-06-14T02:19:29;14.10;85.80
64209;DHT22;50527;52.414;13.226;2023-06-14T02:21:54;14.10;86.50
64209;DHT22;50527;52.414;13.226;2023-06-14T02:24:20;14.10;86.20
64209;DHT22;50527;52.414;13.226;2023-06-14T02:26:46;14.10;86.10
64209;DHT22;50527;52.414;13.226;2023-06-14T02:29:11;14.00;85.50
64209;DHT22;50527;52.414;13.226;2023-06-14T02:31:40;14.00;86.00
64209;DHT22;50527;52.414;13.226;2023-06-14T02:34:06;13.90;87.30
64209;DHT22;50527;52.414;13.226;2023-06-14T02:36:34;13.80;87.50
64209;DHT22;50527;52.414;13.226;2023-06-14T02:38:59;13.80;87.60
64209;DHT22;50527;52.414;13.226;2023-06-14T02:41:25;13.70;88.20
64209;DHT22;50527;52.414;13.226;2023-06-14T02:43:51;13.70;88.60
64209;DHT22;50527;52.414;13.226;2023-06-14T02:46:17;13.70;88.70
64209;DHT22;50527;52.414;13.226;2023-06-14T02:48:42;13.60;89.20
64209;DHT22;50527;52.414;13.226;2023-06-14T02:51:07;13.60;89.30
64209;DHT22;50527;52.414;13.226;2023-06-14T02:53:35;13.60;89.50
64209;DHT22;50527;52.414;13.226;2023-06-14T02:56:01;13.60;90.10
64209;DHT22;50527;52.414;13.226;2023-06-14T03:01:35;13.60;90.10
64209;DHT22;50527;52.414;13.226;2023-06-14T03:04:01;13.60;90.20
64209;DHT22;50527;52.414;13.226;2023-06-14T03:06:31;13.60;89.70
64209;DHT22;50527;52.414;13.226;2023-06-14T03:08:58;13.50;90.30
64209;DHT22;50527;52.414;13.226;2023-06-14T03:11:25;13.60;90.30
64209;DHT22;50527;52.414;13.226;2023-06-14T03:13:51;13.50;90.20
64209;DHT22;50527;52.414;13.226;2023-06-14T03:16:17;13.50;90.40
64209;DHT22;50527;52.414;13.226;2023-06-14T03:18:48;13.50;90.60
64209;DHT22;50527;52.414;13.226;2023-06-14T03:21:14;13.50;90.70
64209;DHT22;50527;52.414;13.226;2023-06-14T03:23:41;13.60;90.70
64209;DHT22;50527;52.414;13.226;2023-06-14T03:26:07;13.60;90.60
64209;DHT22;50527;52.414;13.226;2023-06-14T03:28:32;13.50;90.80
64209;DHT22;50527;52.414;13.226;2023-06-14T03:30:57;13.50;90.90
64209;DHT22;50527;52.414;13.226;2023-06-14T03:33:23;13.50;91.00
64209;DHT22;50527;52.414;13.226;2023-06-14T03:35:50;13.50;91.20
64209;DHT22;50527;52.414;13.226;2023-06-14T03:38:16;13.60;91.30
64209;DHT22;50527;52.414;13.226;2023-06-14T03:44:03;13.60;91.30
64209;DHT22;50527;52.414;13.226;2023-06-14T03:46:28;13.70;91.10
64209;DHT22;50527;52.414;13.226;2023-06-14T03:48:54;13.70;91.30
64209;DHT22;50527;52.414;13.226;2023-06-14T03:51:20;13.70;91.50
64209;DHT22;50527;52.414;13.226;2023-06-14T03:53:45;13.70;91.60
64209;DHT22;50527;52.414;13.226;2023-06-14T03:56:11;13.80;91.30
64209;DHT22;50527;52.414;13.226;2023-06-14T03:58:36;13.70;91.40
64209;DHT22;50527;52.414;13.226;2023-06-14T04:01:02;13.70;91.60
64209;DHT22;50527;52.414;13.226;2023-06-14T04:03:27;13.80;91.60
64209;DHT22;50527;52.414;13.226;2023-06-14T04:05:54;13.80;91.70
64209;DHT22;50527;52.414;13.226;2023-06-14T04:08:22;13.90;91.50
64209;DHT22;50527;52.414;13.226;2023-06-14T04:10:47;14.00;91.40
64209;DHT22;50527;52.414;13.226;2023-06-14T04:13:13;14.00;91.40
64209;DHT22;50527;52.414;13.226;2023-06-14T04:15:39;14.10;91.20
64209;DHT22;50527;52.414;13.226;2023-06-14T04:18:07;14.10;90.90
64209;DHT22;50527;52.414;13.226;2023-06-14T04:20:33;14.10;91.10
64209;DHT22;50527;52.414;13.226;2023-06-14T04:23:14;14.10;91.30
64209;DHT22;50527;52.414;13.226;2023-06-14T04:25:40;14.10;91.40
64209;DHT22;50527;52.414;13.226;2023-06-14T04:28:11;14.20;91.10
64209;DHT22;50527;52.414;13.226;2023-06-14T04:30:37;14.40;90.90
64209;DHT22;50527;52.414;13.226;2023-06-14T04:33:04;14.50;90.60
64209;DHT22;50527;52.414;13.226;2023-06-14T04:35:31;14.60;90.40
64209;DHT22;50527;52.414;13.226;2023-06-14T04:37:58;14.70;90.20
64209;DHT22;50527;52.414;13.226;2023-06-14T04:40:23;14.80;88.90
64209;DHT22;50527;52.414;13.226;2023-06-14T04:42:49;15.00;88.10
64209;DHT22;50527;52.414;13.226;2023-06-14T04:45:16;15.10;87.40
64209;DHT22;50527;52.414;13.226;2023-06-14T04:47:42;15.20;85.60
64209;DHT22;50527;52.414;13.226;2023-06-14T04:50:09;15.40;85.40
64209;DHT22;50527;52.414;13.226;2023-06-14T04:52:36;15.50;84.80
64209;DHT22;50527;52.414;13.226;2023-06-14T04:55:02;15.80;83.40
64209;DHT22;50527;52.414;13.226;2023-06-14T04:57:28;16.00;81.90
64209;DHT22;50527;52.414;13.226;2023-06-14T04:59:54;16.00;80.30
64209;DHT22;50527;52.414;13.226;2023-06-14T05:02:23;16.00;79.30
64209;DHT22;50527;52.414;13.226;2023-06-14T05:04:50;15.90;79.70
64209;DHT22;50527;52.414;13.226;2023-06-14T05:07:15;15.80;80.50
64209;DHT22;50527;52.414;13.226;2023-06-14T05:09:41;15.80;80.50
64209;DHT22;50527;52.414;13.226;2023-06-14T05:12:07;15.80;81.40
64209;DHT22;50527;52.414;13.226;2023-06-14T05:14:35;15.80;81.20
64209;DHT22;50527;52.414;13.226;2023-06-14T05:17:01;15.80;81.70
64209;DHT22;50527;52.414;13.226;2023-06-14T05:19:28;15.80;80.80
64209;DHT22;50527;52.414;13.226;2023-06-14T05:21:53;15.90;80.20
64209;DHT22;50527;52.414;13.226;2023-06-14T05:24:19;15.90;77.30
64209;DHT22;50527;52.414;13.226;2023-06-14T05:26:45;15.90;77.40
64209;DHT22;50527;52.414;13.226;2023-06-14T05:29:11;15.90;77.60
64209;DHT22;50527;52.414;13.226;2023-06-14T05:31:37;15.90;78.60
64209;DHT22;50527;52.414;13.226;2023-06-14T05:34:03;15.90;79.40
64209;DHT22;50527;52.414;13.226;2023-06-14T05:36:28;15.90;80.20
64209;DHT22;50527;52.414;13.226;2023-06-14T05:38:54;16.00;79.00
64209;DHT22;50527;52.414;13.226;2023-06-14T05:41:25;16.10;79.80
64209;DHT22;50527;52.414;13.226;2023-06-14T05:43:52;16.10;79.30
64209;DHT22;50527;52.414;13.226;2023-06-14T05:46:17;16.30;77.30
64209;DHT22;50527;52.414;13.226;2023-06-14T05:48:56;16.50;75.90
64209;DHT22;50527;52.414;13.226;2023-06-14T05:51:22;16.60;75.00
64209;DHT22;50527;52.414;13.226;2023-06-14T05:53:50;16.60;75.40
64209;DHT22;50527;52.414;13.226;2023-06-14T05:56:16;16.70;74.70
64209;DHT22;50527;52.414;13.226;2023-06-14T05:58:43;16.80;74.30
64209;DHT22;50527;52.414;13.226;2023-06-14T06:01:09;16.90;72.90
64209;DHT22;50527;52.414;13.226;2023-06-14T06:03:34;16.90;71.50
64209;DHT22;50527;52.414;13.226;2023-06-14T06:06:00;16.90;71.50
64209;DHT22;50527;52.414;13.226;2023-06-14T06:08:26;17.00;72.20
64209;DHT22;50527;52.414;13.226;2023-06-14T06:10:52;16.90;70.00
64209;DHT22;50527;52.414;13.226;2023-06-14T06:13:17;16.80;69.70
64209;DHT22;50527;52.414;13.226;2023-06-14T06:15:43;16.80;69.90
64209;DHT22;50527;52.414;13.226;2023-06-14T06:18:09;16.80;69.50
64209;DHT22;50527;52.414;13.226;2023-06-14T06:20:34;16.80;69.90
64209;DHT22;50527;52.414;13.226;2023-06-14T06:23:01;16.80;69.50
64209;DHT22;50527;52.414;13.226;2023-06-14T06:25:27;16.70;68.90
64209;DHT22;50527;52.414;13.226;2023-06-14T06:27:54;16.80;69.00
64209;DHT22;50527;52.414;13.226;2023-06-14T06:30:20;16.70;69.20
64209;DHT22;50527;52.414;13.226;2023-06-14T06:32:46;16.70;69.40
64209;DHT22;50527;52.414;13.226;2023-06-14T06:35:12;16.80;69.50
64209;DHT22;50527;52.414;13.226;2023-06-14T06:37:38;16.80;70.10
64209;DHT22;50527;52.414;13.226;2023-06-14T06:40:04;16.80;70.80
64209;DHT22;50527;52.414;13.226;2023-06-14T06:42:31;16.90;71.30
64209;DHT22;50527;52.414;13.226;2023-06-14T06:44:57;17.00;71.60
64209;DHT22;50527;52.414;13.226;2023-06-14T06:47:22;16.90;70.50
64209;DHT22;50527;52.414;13.226;2023-06-14T06:49:48;16.80;70.80
64209;DHT22;50527;52.414;13.226;2023-06-14T06:52:13;16.80;71.50
64209;DHT22;50527;52.414;13.226;2023-06-14T06:54:39;16.80;71.50
64209;DHT22;50527;52.414;13.226;2023-06-14T06:57:05;17.00;72.00
64209;DHT22;50527;52.414;13.226;2023-06-14T06:59:31;17.10;71.20
64209;DHT22;50527;52.414;13.226;2023-06-14T07:01:57;17.10;71.70
64209;DHT22;50527;52.414;13.226;2023-06-14T07:04:22;17.10;72.40
64209;DHT22;50527;52.414;13.226;2023-06-14T07:06:48;17.10;72.30
64209;DHT22;50527;52.414;13.226;2023-06-14T07:09:13;17.20;71.20
64209;DHT22;50527;52.414;13.226;2023-06-14T07:11:40;17.30;71.10
64209;DHT22;50527;52.414;13.226;2023-06-14T07:14:06;17.40;71.50
64209;DHT22;50527;52.414;13.226;2023-06-14T07:16:32;17.70;70.50
64209;DHT22;50527;52.414;13.226;2023-06-14T07:18:57;17.80;69.90
64209;DHT22;50527;52.414;13.226;2023-06-14T07:21:23;17.90;68.90
64209;DHT22;50527;52.414;13.226;2023-06-14T07:23:51;18.00;68.60
64209;DHT22;50527;52.414;13.226;2023-06-14T07:26:16;18.10;68.50
64209;DHT22;50527;52.414;13.226;2023-06-14T07:28:42;18.20;68.30
64209;DHT22;50527;52.414;13.226;2023-06-14T07:37:54;18.70;65.30
64209;DHT22;50527;52.414;13.226;2023-06-14T07:40:20;18.70;65.50
64209;DHT22;50527;52.414;13.226;2023-06-14T07:42:45;18.80;66.00
64209;DHT22;50527;52.414;13.226;2023-06-14T07:45:13;19.10;65.00
64209;DHT22;50527;52.414;13.226;2023-06-14T07:47:39;19.20;63.20
64209;DHT22;50527;52.414;13.226;2023-06-14T07:50:05;19.40;63.50
64209;DHT22;50527;52.414;13.226;2023-06-14T07:52:30;19.50;62.40
64209;DHT22;50527;52.414;13.226;2023-06-14T07:54:56;19.50;63.10
64209;DHT22;50527;52.414;13.226;2023-06-14T07:57:22;19.20;63.00
64209;DHT22;50527;52.414;13.226;2023-06-14T07:59:47;18.90;64.00
64209;DHT22;50527;52.414;13.226;2023-06-14T08:02:13;18.90;64.60
64209;DHT22;50527;52.414;13.226;2023-06-14T08:04:38;19.00;64.70
64209;DHT22;50527;52.414;13.226;2023-06-14T08:07:04;19.00;64.70
64209;DHT22;50527;52.414;13.226;2023-06-14T08:09:30;19.10;64.70
64209;DHT22;50527;52.414;13.226;2023-06-14T08:11:56;19.20;64.10
64209;DHT22;50527;52.414;13.226;2023-06-14T08:14:21;19.20;62.90
64209;DHT22;50527;52.414;13.226;2023-06-14T08:16:47;19.20;63.90
64209;DHT22;50527;52.414;13.226;2023-06-14T08:22:35;19.10;63.90
64209;DHT22;50527;52.414;13.226;2023-06-14T08:28:25;19.10;64.30
64209;DHT22;50527;52.414;13.226;2023-06-14T08:30:51;19.10;63.20
64209;DHT22;50527;52.414;13.226;2023-06-14T08:33:16;19.10;63.60
64209;DHT22;50527;52.414;13.226;2023-06-14T08:35:42;19.10;63.90
64209;DHT22;50527;52.414;13.226;2023-06-14T08:38:07;19.00;63.30
64209;DHT22;50527;52.414;13.226;2023-06-14T08:40:37;19.00;63.40
64209;DHT22;50527;52.414;13.226;2023-06-14T08:43:03;19.00;63.20
64209;DHT22;50527;52.414;13.226;2023-06-14T08:45:28;19.10;63.50
64209;DHT22;50527;52.414;13.226;2023-06-14T08:47:55;19.20;63.50
64209;DHT22;50527;52.414;13.226;2023-06-14T08:50:25;19.20;61.60
64209;DHT22;50527;52.414;13.226;2023-06-14T08:52:57;19.30;61.60
64209;DHT22;50527;52.414;13.226;2023-06-14T08:55:28;19.40;61.50
64209;DHT22;50527;52.414;13.226;2023-06-14T08:57:55;19.50;61.60
64209;DHT22;50527;52.414;13.226;2023-06-14T09:00:23;19.70;60.70
64209;DHT22;50527;52.414;13.226;2023-06-14T09:02:50;19.90;61.20
64209;DHT22;50527;52.414;13.226;2023-06-14T09:05:22;19.70;59.30
64209;DHT22;50527;52.414;13.226;2023-06-14T09:07:48;20.00;59.80
64209;DHT22;50527;52.414;13.226;2023-06-14T09:10:15;20.40;59.10
64209;DHT22;50527;52.414;13.226;2023-06-14T09:12:41;20.50;56.90
64209;DHT22;50527;52.414;13.226;2023-06-14T09:15:08;20.90;56.00
64209;DHT22;50527;52.414;13.226;2023-06-14T09:17:38;20.90;54.00
64209;DHT22;50527;52.414;13.226;2023-06-14T09:20:08;21.20;54.50
64209;DHT22;50527;52.414;13.226;2023-06-14T09:22:42;21.40;53.50
64209;DHT22;50527;52.414;13.226;2023-06-14T09:25:08;21.30;53.40
64209;DHT22;50527;52.414;13.226;2023-06-14T09:27:34;21.30;52.90
64209;DHT22;50527;52.414;13.226;2023-06-14T09:30:02;21.00;52.60
64209;DHT22;50527;52.414;13.226;2023-06-14T09:32:27;20.80;53.80
64209;DHT22;50527;52.414;13.226;2023-06-14T09:34:53;20.90;53.70
64209;DHT22;50527;52.414;13.226;2023-06-14T09:37:45;20.80;55.10
64209;DHT22;50527;52.414;13.226;2023-06-14T09:40:10;20.90;53.70
64209;DHT22;50527;52.414;13.226;2023-06-14T09:42:37;20.90;53.80
64209;DHT22;50527;52.414;13.226;2023-06-14T09:45:03;21.00;54.00
64209;DHT22;50527;52.414;13.226;2023-06-14T09:47:30;20.80;53.30
64209;DHT22;50527;52.414;13.226;2023-06-14T09:49:55;20.70;54.60
64209;DHT22;50527;52.414;13.226;2023-06-14T09:52:22;20.70;54.80
64209;DHT22;50527;52.414;13.226;2023-06-14T09:54:48;21.00;54.40
64209;DHT22;50527;52.414;13.226;2023-06-14T09:57:16;21.10;54.10
64209;DHT22;50527;52.414;13.226;2023-06-14T09:59:46;21.10;53.40
64209;DHT22;50527;52.414;13.226;2023-06-14T10:02:26;21.00;53.80
64209;DHT22;50527;52.414;13.226;2023-06-14T10:07:53;20.70;53.90
64209;DHT22;50527;52.414;13.226;2023-06-14T10:10:20;20.70;55.60
64209;DHT22;50527;52.414;13.226;2023-06-14T10:12:46;20.80;55.20
64209;DHT22;50527;52.414;13.226;2023-06-14T10:15:18;20.80;55.30
64209;DHT22;50527;52.414;13.226;2023-06-14T10:17:52;20.80;56.20
64209;DHT22;50527;52.414;13.226;2023-06-14T10:20:41;20.90;55.60
64209;DHT22;50527;52.414;13.226;2023-06-14T10:23:16;21.00;53.30
64209;DHT22;50527;52.414;13.226;2023-06-14T10:25:43;21.20;53.00
64209;DHT22;50527;52.414;13.226;2023-06-14T10:28:19;21.30;52.30
64209;DHT22;50527;52.414;13.226;2023-06-14T10:33:34;21.70;50.40
64209;DHT22;50527;52.414;13.226;2023-06-14T10:36:31;21.70;50.80
64209;DHT22;50527;52.414;13.226;2023-06-14T10:39:18;21.60;50.00
64209;DHT22;50527;52.414;13.226;2023-06-14T10:41:55;21.30;51.50
64209;DHT22;50527;52.414;13.226;2023-06-14T10:47:09;21.50;51.40
64209;DHT22;50527;52.414;13.226;2023-06-14T10:49:56;21.40;51.00
64209;DHT22;50527;52.414;13.226;2023-06-14T10:52:25;21.40;51.40
64209;DHT22;50527;52.414;13.226;2023-06-14T10:57:34;21.20;50.80
64209;DHT22;50527;52.414;13.226;2023-06-14T11:00:01;21.40;51.60
64209;DHT22;50527;52.414;13.226;2023-06-14T11:03:05;21.70;50.10
64209;DHT22;50527;52.414;13.226;2023-06-14T11:08:39;21.80;49.70
64209;DHT22;50527;52.414;13.226;2023-06-14T11:11:07;21.80;50.20
64209;DHT22;50527;52.414;13.226;2023-06-14T11:13:34;21.70;50.20
64209;DHT22;50527;52.414;13.226;2023-06-14T11:16:00;21.80;49.60
64209;DHT22;50527;52.414;13.226;2023-06-14T11:18:25;21.60;49.50
64209;DHT22;50527;52.414;13.226;2023-06-14T11:20:53;21.70;50.40
64209;DHT22;50527;52.414;13.226;2023-06-14T11:23:18;21.90;50.20
64209;DHT22;50527;52.414;13.226;2023-06-14T11:25:49;21.90;49.50
64209;DHT22;50527;52.414;13.226;2023-06-14T11:28:14;21.90;48.90
64209;DHT22;50527;52.414;13.226;2023-06-14T11:30:40;22.10;48.80
64209;DHT22;50527;52.414;13.226;2023-06-14T11:33:09;21.90;48.00
64209;DHT22;50527;52.414;13.226;2023-06-14T11:35:35;22.00;49.30
64209;DHT22;50527;52.414;13.226;2023-06-14T11:38:01;22.20;48.50
64209;DHT22;50527;52.414;13.226;2023-06-14T11:40:27;22.30;46.80
64209;DHT22;50527;52.414;13.226;2023-06-14T11:43:00;22.30;47.50
64209;DHT22;50527;52.414;13.226;2023-06-14T11:45:26;22.30;46.80
64209;DHT22;50527;52.414;13.226;2023-06-14T11:47:54;22.30;47.70
64209;DHT22;50527;52.414;13.226;2023-06-14T11:50:21;22.40;46.10
64209;DHT22;50527;52.414;13.226;2023-06-14T11:52:55;22.40;46.40
64209;DHT22;50527;52.414;13.226;2023-06-14T11:55:22;22.50;46.90
64209;DHT22;50527;52.414;13.226;2023-06-14T11:57:47;22.60;45.90
64209;DHT22;50527;52.414;13.226;2023-06-14T12:00:13;23.00;46.50
64209;DHT22;50527;52.414;13.226;2023-06-14T12:02:41;23.10;46.40
64209;DHT22;50527;52.414;13.226;2023-06-14T12:05:07;23.20;44.50
64209;DHT22;50527;52.414;13.226;2023-06-14T12:07:38;23.20;44.80
64209;DHT22;50527;52.414;13.226;2023-06-14T12:13:27;22.80;44.40
64209;DHT22;50527;52.414;13.226;2023-06-14T12:15:58;22.60;45.10
64209;DHT22;50527;52.414;13.226;2023-06-14T12:18:34;22.50;44.30
64209;DHT22;50527;52.414;13.226;2023-06-14T12:21:00;22.60;45.50
64209;DHT22;50527;52.414;13.226;2023-06-14T12:23:46;22.80;45.10
64209;DHT22;50527;52.414;13.226;2023-06-14T12:26:16;22.80;45.60
64209;DHT22;50527;52.414;13.226;2023-06-14T12:28:44;22.80;44.90
64209;DHT22;50527;52.414;13.226;2023-06-14T12:31:12;22.50;44.50
64209;DHT22;50527;52.414;13.226;2023-06-14T12:33:38;22.60;44.60
64209;DHT22;50527;52.414;13.226;2023-06-14T12:36:06;22.60;44.50
64209;DHT22;50527;52.414;13.226;2023-06-14T12:38:32;22.70;43.70
64209;DHT22;50527;52.414;13.226;2023-06-14T12:40:58;23.00;43.50
64209;DHT22;50527;52.414;13.226;2023-06-14T12:43:24;23.10;43.70
64209;DHT22;50527;52.414;13.226;2023-06-14T12:45:49;23.20;43.80
64209;DHT22;50527;52.414;13.226;2023-06-14T12:48:15;23.30;42.50
64209;DHT22;50527;52.414;13.226;2023-06-14T12:50:41;23.20;42.90
64209;DHT22;50527;52.414;13.226;2023-06-14T12:53:07;23.50;43.00
64209;DHT22;50527;52.414;13.226;2023-06-14T12:55:33;23.60;42.50
64209;DHT22;50527;52.414;13.226;2023-06-14T12:57:59;23.70;41.40
64209;DHT22;50527;52.414;13.226;2023-06-14T13:00:24;23.70;42.40
64209;DHT22;50527;52.414;13.226;2023-06-14T13:02:51;23.60;42.20
64209;DHT22;50527;52.414;13.226;2023-06-14T13:05:17;23.80;42.20
64209;DHT22;50527;52.414;13.226;2023-06-14T13:07:43;23.80;41.30
64209;DHT22;50527;52.414;13.226;2023-06-14T13:10:09;23.90;40.70
64209;DHT22;50527;52.414;13.226;2023-06-14T13:12:34;23.70;40.30
64209;DHT22;50527;52.414;13.226;2023-06-14T13:15:00;23.80;40.60
64209;DHT22;50527;52.414;13.226;2023-06-14T13:17:25;23.70;39.90
64209;DHT22;50527;52.414;13.226;2023-06-14T13:19:51;23.60;40.50
64209;DHT22;50527;52.414;13.226;2023-06-14T13:22:17;23.70;40.60
64209;DHT22;50527;52.414;13.226;2023-06-14T13:24:42;23.80;40.30
64209;DHT22;50527;52.414;13.226;2023-06-14T13:27:08;23.70;40.20
64209;DHT22;50527;52.414;13.226;2023-06-14T13:29:33;23.50;40.50
64209;DHT22;50527;52.414;13.226;2023-06-14T13:32:01;23.60;41.20
64209;DHT22;50527;52.414;13.226;2023-06-14T13:34:27;23.90;40.90
64209;DHT22;50527;52.414;13.226;2023-06-14T13:36:52;24.10;40.70
64209;DHT22;50527;52.414;13.226;2023-06-14T13:39:18;24.10;39.80
64209;DHT22;50527;52.414;13.226;2023-06-14T13:41:43;24.10;38.70
64209;DHT22;50527;52.414;13.226;2023-06-14T13:44:08;24.00;38.60
64209;DHT22;50527;52.414;13.226;2023-06-14T13:46:36;23.70;39.50
64209;DHT22;50527;52.414;13.226;2023-06-14T13:49:02;23.80;39.60
64209;DHT22;50527;52.414;13.226;2023-06-14T13:51:28;23.70;39.00
64209;DHT22;50527;52.414;13.226;2023-06-14T13:53:54;23.90;38.80
64209;DHT22;50527;52.414;13.226;2023-06-14T13:56:20;24.00;38.70
64209;DHT22;50527;52.414;13.226;2023-06-14T13:58:47;24.20;38.90
64209;DHT22;50527;52.414;13.226;2023-06-14T14:01:13;24.20;39.10
64209;DHT22;50527;52.414;13.226;2023-06-14T14:03:39;23.90;39.00
64209;DHT22;50527;52.414;13.226;2023-06-14T14:06:04;24.00;40.20
64209;DHT22;50527;52.414;13.226;2023-06-14T14:08:31;24.20;39.50
64209;DHT22;50527;52.414;13.226;2023-06-14T14:10:56;24.20;39.40
64209;DHT22;50527;52.414;13.226;2023-06-14T14:13:22;24.20;39.50
64209;DHT22;50527;52.414;13.226;2023-06-14T14:15:47;24.30;38.70
64209;DHT22;50527;52.414;13.226;2023-06-14T14:18:14;24.40;38.80
64209;DHT22;50527;52.414;13.226;2023-06-14T14:20:40;24.30;38.70
64209;DHT22;50527;52.414;13.226;2023-06-14T14:23:06;24.10;38.00
64209;DHT22;50527;52.414;13.226;2023-06-14T14:25:31;24.00;38.30
64209;DHT22;50527;52.414;13.226;2023-06-14T14:27:57;23.80;38.40
64209;DHT22;50527;52.414;13.226;2023-06-14T14:30:22;23.80;37.80
64209;DHT22;50527;52.414;13.226;2023-06-14T14:32:49;23.90;37.50
64209;DHT22;50527;52.414;13.226;2023-06-14T14:35:16;23.90;38.00
64209;DHT22;50527;52.414;13.226;2023-06-14T14:37:43;23.90;37.90
64209;DHT22;50527;52.414;13.226;2023-06-14T14:40:08;24.00;37.60
64209;DHT22;50527;52.414;13.226;2023-06-14T14:42:35;24.10;38.70
64209;DHT22;50527;52.414;13.226;2023-06-14T14:45:01;24.00;38.50
64209;DHT22;50527;52.414;13.226;2023-06-14T14:47:26;24.00;39.60
64209;DHT22;50527;52.414;13.226;2023-06-14T14:49:52;24.00;40.10
64209;DHT22;50527;52.414;13.226;2023-06-14T14:52:17;24.00;39.90
64209;DHT22;50527;52.414;13.226;2023-06-14T14:54:43;23.90;39.90
64209;DHT22;50527;52.414;13.226;2023-06-14T14:57:08;23.60;40.70
64209;DHT22;50527;52.414;13.226;2023-06-14T14:59:34;23.50;39.80
64209;DHT22;50527;52.414;13.226;2023-06-14T15:01:59;23.50;40.30
64209;DHT22;50527;52.414;13.226;2023-06-14T15:04:25;23.60;40.00
64209;DHT22;50527;52.414;13.226;2023-06-14T15:06:50;23.50;39.10
64209;DHT22;50527;52.414;13.226;2023-06-14T15:09:16;23.50;39.60
64209;DHT22;50527;52.414;13.226;2023-06-14T15:11:42;23.50;39.20
64209;DHT22;50527;52.414;13.226;2023-06-14T15:14:09;23.40;39.60
64209;DHT22;50527;52.414;13.226;2023-06-14T15:16:35;23.30;39.40
64209;DHT22;50527;52.414;13.226;2023-06-14T15:19:01;23.20;39.70
64209;DHT22;50527;52.414;13.226;2023-06-14T15:21:26;23.20;39.60
64209;DHT22;50527;52.414;13.226;2023-06-14T15:23:51;23.20;39.20
64209;DHT22;50527;52.414;13.226;2023-06-14T15:26:18;23.10;39.50
64209;DHT22;50527;52.414;13.226;2023-06-14T15:28:44;23.00;39.60
64209;DHT22;50527;52.414;13.226;2023-06-14T15:31:09;22.90;39.70
64209;DHT22;50527;52.414;13.226;2023-06-14T15:33:35;22.80;40.10
64209;DHT22;50527;52.414;13.226;2023-06-14T15:36:01;22.70;40.50
64209;DHT22;50527;52.414;13.226;2023-06-14T15:38:26;22.70;40.20
64209;DHT22;50527;52.414;13.226;2023-06-14T15:40:52;22.60;40.20
64209;DHT22;50527;52.414;13.226;2023-06-14T15:43:17;22.60;40.10
64209;DHT22;50527;52.414;13.226;2023-06-14T15:45:43;22.60;40.20
64209;DHT22;50527;52.414;13.226;2023-06-14T15:48:09;22.70;40.40
64209;DHT22;50527;52.414;13.226;2023-06-14T15:50:34;22.70;40.10
64209;DHT22;50527;52.414;13.226;2023-06-14T15:53:01;22.70;39.70
64209;DHT22;50527;52.414;13.226;2023-06-14T15:55:27;22.70;39.60
64209;DHT22;50527;52.414;13.226;2023-06-14T15:57:52;22.60;40.00